Time;durP1;ratioP1;P1;durP2;ratioP2;P2;SDS_P1;SDS_P2;PMS_P1;PMS_P2;Temp;Humidity;BMP_temperature;BMP_pressure;BME280_temperature;BME280_humidity;BME280_pressure;Samples;Min_cycle;Max_cycle;Signal;HPM_P1;HPM_P2
2023/05/31 00:01:35;;;;;;;11.82;6.68;;;14.50;99.90;;;;;;5106234;28;20438;-54
2023/05/31 00:04:02;;;;;;;13.07;7.18;;;14.40;99.90;;;;;;5100478;28;20026;-56
2023/05/31 00:06:28;;;;;;;16.33;7.13;;;14.30;99.90;;;;;;5108173;28;20501;-59
2023/05/31 00:08:53;;;;;;;15.43;7.68;;;14.20;99.90;;;;;;5105974;28;20028;-58
2023/05/31 00:11:19;;;;;;;15.02;8.15;;;14.10;99.90;;;;;;5108643;28;20074;-53
2023/05/31 00:13:44;;;;;;;17.55;7.78;;;14.10;99.90;;;;;;5107916;28;20023;-55
2023/05/31 00:16:10;;;;;;;15.93;7.85;;;13.90;99.90;;;;;;5108280;28;20023;-53
2023/05/31 00:18:36;;;;;;;15.70;7.90;;;13.80;99.90;;;;;;5107943;28;20019;-55
2023/05/31 00:21:02;;;;;;;14.10;7.28;;;13.80;99.90;;;;;;5111082;28;20164;-53
2023/05/31 00:23:28;;;;;;;21.73;7.93;;;13.70;99.90;;;;;;5108900;28;20513;-58
2023/05/31 00:25:53;;;;;;;14.85;7.53;;;13.60;99.90;;;;;;5109217;28;20046;-57
2023/05/31 00:28:19;;;;;;;18.02;8.13;;;13.60;99.90;;;;;;5106330;28;20106;-54
2023/05/31 00:30:45;;;;;;;15.07;7.32;;;13.50;99.90;;;;;;5105660;28;20378;-56
2023/05/31 00:33:11;;;;;;;16.00;8.23;;;13.40;99.90;;;;;;5106244;28;20028;-55
2023/05/31 00:35:37;;;;;;;24.17;8.75;;;13.30;99.90;;;;;;5106462;28;20028;-57
2023/05/31 00:38:05;;;;;;;16.73;8.20;;;13.30;99.90;;;;;;5104199;28;20091;-56
2023/05/31 00:40:32;;;;;;;17.05;8.13;;;13.20;99.90;;;;;;5102155;28;20053;-57
2023/05/31 00:42:57;;;;;;;17.75;8.40;;;13.10;99.90;;;;;;5104481;28;20051;-56
2023/05/31 00:45:23;;;;;;;16.48;7.47;;;13.10;99.90;;;;;;5101586;28;20493;-51
2023/05/31 00:47:49;;;;;;;15.43;7.85;;;13.00;99.90;;;;;;5103994;28;20044;-55
2023/05/31 00:50:15;;;;;;;23.17;8.50;;;12.90;99.90;;;;;;5103394;28;20019;-53
2023/05/31 00:52:44;;;;;;;18.33;8.05;;;12.90;99.90;;;;;;5100029;28;20038;-54
2023/05/31 00:55:10;;;;;;;19.67;8.23;;;12.90;99.90;;;;;;5103889;28;20054;-56
2023/05/31 00:57:37;;;;;;;19.95;9.55;;;12.80;99.90;;;;;;5099250;28;20511;-57
2023/05/31 01:00:07;;;;;;;20.75;8.30;;;12.80;99.90;;;;;;5105640;28;20024;-54
2023/05/31 01:02:34;;;;;;;23.88;8.15;;;12.80;99.90;;;;;;5103504;28;20024;-57
2023/05/31 01:05:01;;;;;;;21.17;8.65;;;12.80;99.90;;;;;;5099744;28;20069;-54
2023/05/31 01:07:26;;;;;;;19.40;8.48;;;12.80;99.90;;;;;;5109400;28;20089;-55
2023/05/31 01:09:53;;;;;;;14.35;7.43;;;12.80;99.90;;;;;;5107130;28;20497;-55
2023/05/31 01:12:47;;;;;;;17.55;8.30;;;12.80;99.90;;;;;;5104211;28;20027;-59
2023/05/31 01:15:27;;;;;;;18.60;8.52;;;12.70;99.90;;;;;;5065772;28;20405;-55
2023/05/31 01:18:25;;;;;;;17.95;8.52;;;12.70;99.90;;;;;;5106095;28;20028;-53
2023/05/31 01:20:53;;;;;;;18.48;8.90;;;12.70;99.90;;;;;;5104942;28;20072;-54
2023/05/31 01:24:04;;;;;;;21.05;8.65;;;12.60;99.90;;;;;;5108051;28;20051;-57
2023/05/31 01:26:46;;;;;;;16.98;8.57;;;12.60;99.90;;;;;;5109000;27;20031;-57
2023/05/31 01:29:16;;;;;;;18.70;8.63;;;12.50;99.90;;;;;;5107562;28;20111;-58
2023/05/31 01:31:45;;;;;;;18.70;9.20;;;12.40;99.90;;;;;;5109277;28;20042;-59
2023/05/31 01:34:11;;;;;;;18.60;8.93;;;12.40;99.90;;;;;;5106730;28;20038;-58
2023/05/31 01:36:37;;;;;;;16.98;8.95;;;12.30;99.90;;;;;;5103247;28;20486;-59
2023/05/31 01:39:03;;;;;;;26.45;9.75;;;12.30;99.90;;;;;;5102212;28;21237;-59
2023/05/31 01:41:41;;;;;;;21.25;8.60;;;12.30;99.90;;;;;;5098343;28;20069;-58
2023/05/31 01:44:08;;;;;;;21.33;8.38;;;12.20;99.90;;;;;;5104361;28;20016;-56
2023/05/31 01:46:34;;;;;;;23.25;8.77;;;12.20;99.90;;;;;;5095739;28;20091;-60
2023/05/31 01:49:01;;;;;;;18.33;8.85;;;12.20;99.90;;;;;;5094151;28;20023;-58
2023/05/31 01:51:30;;;;;;;19.73;8.38;;;12.10;99.90;;;;;;5095995;28;20118;-56
2023/05/31 01:53:56;;;;;;;23.25;8.70;;;12.10;99.90;;;;;;5102724;28;20038;-56
2023/05/31 01:56:23;;;;;;;24.08;9.23;;;12.10;99.90;;;;;;5103940;28;20031;-59
2023/05/31 01:58:51;;;;;;;20.27;8.93;;;12.00;99.90;;;;;;5104742;28;20027;-59
2023/05/31 02:01:18;;;;;;;21.10;9.43;;;12.00;99.90;;;;;;5094864;28;20028;-57
2023/05/31 02:03:44;;;;;;;21.33;8.95;;;12.00;99.90;;;;;;5095127;28;20047;-57
2023/05/31 02:06:13;;;;;;;25.30;10.00;;;12.00;99.90;;;;;;5098658;28;20142;-59
2023/05/31 02:08:39;;;;;;;17.55;8.43;;;12.00;99.90;;;;;;5107347;28;20035;-59
2023/05/31 02:11:04;;;;;;;20.88;9.20;;;12.00;99.90;;;;;;5101474;27;20110;-57
2023/05/31 02:13:30;;;;;;;21.58;9.15;;;11.90;99.90;;;;;;5106232;28;20118;-59
2023/05/31 02:15:57;;;;;;;22.85;9.90;;;11.90;99.90;;;;;;5107350;28;20054;-56
2023/05/31 02:18:26;;;;;;;22.92;8.73;;;11.90;99.90;;;;;;5105379;28;20080;-58
2023/05/31 02:20:52;;;;;;;24.20;9.65;;;11.80;99.90;;;;;;5106780;28;20043;-55
2023/05/31 02:23:18;;;;;;;23.67;9.82;;;11.80;99.90;;;;;;5106460;28;20012;-59
2023/05/31 02:25:48;;;;;;;22.23;9.02;;;11.80;99.90;;;;;;5102615;28;20423;-59
2023/05/31 02:28:14;;;;;;;20.30;9.15;;;11.70;99.90;;;;;;5107203;28;20095;-57
2023/05/31 02:30:40;;;;;;;25.27;10.25;;;11.70;99.90;;;;;;5106809;28;20372;-59
2023/05/31 02:33:07;;;;;;;23.17;10.07;;;11.60;99.90;;;;;;5104765;28;20448;-57
2023/05/31 02:35:32;;;;;;;25.30;10.40;;;11.60;99.90;;;;;;5104886;28;20039;-56
2023/05/31 02:37:58;;;;;;;25.10;9.85;;;11.50;99.90;;;;;;5101988;28;20409;-57
2023/05/31 02:40:24;;;;;;;23.55;10.23;;;11.50;99.90;;;;;;5100539;28;20031;-57
2023/05/31 02:42:50;;;;;;;22.88;9.55;;;11.50;99.90;;;;;;5099780;28;20102;-60
2023/05/31 02:45:16;;;;;;;20.58;9.13;;;11.50;99.90;;;;;;5098059;28;20028;-55
2023/05/31 02:47:41;;;;;;;18.25;8.65;;;11.40;99.90;;;;;;5095972;28;20049;-57
2023/05/31 02:50:09;;;;;;;22.85;9.38;;;11.50;99.90;;;;;;5096522;28;20045;-54
2023/05/31 02:52:35;;;;;;;19.08;8.82;;;11.50;99.90;;;;;;5097500;28;20024;-58
2023/05/31 02:55:01;;;;;;;27.63;10.02;;;11.40;99.90;;;;;;5101107;28;20147;-59
2023/05/31 02:57:26;;;;;;;17.40;9.48;;;11.40;99.90;;;;;;5097961;28;20118;-59
2023/05/31 02:59:57;;;;;;;23.27;9.52;;;11.40;99.90;;;;;;5099445;28;20023;-56
2023/05/31 03:02:24;;;;;;;25.58;10.48;;;11.40;99.90;;;;;;5097958;28;20028;-59
2023/05/31 03:04:50;;;;;;;24.90;9.02;;;11.40;99.90;;;;;;5101315;28;20030;-57
2023/05/31 03:07:16;;;;;;;23.98;9.15;;;11.30;99.90;;;;;;5105551;28;20502;-55
2023/05/31 03:09:41;;;;;;;19.15;9.68;;;11.30;99.90;;;;;;5099092;28;20106;-57
2023/05/31 03:12:07;;;;;;;20.55;9.00;;;11.30;99.90;;;;;;5101909;28;20098;-57
2023/05/31 03:14:33;;;;;;;20.70;8.32;;;11.30;99.90;;;;;;5105306;28;20036;-58
2023/05/31 03:16:59;;;;;;;27.65;9.65;;;11.30;99.90;;;;;;5096524;28;20378;-59
2023/05/31 03:19:24;;;;;;;23.92;10.38;;;11.30;99.90;;;;;;5096241;28;20476;-55
2023/05/31 03:21:50;;;;;;;20.52;9.60;;;11.20;99.90;;;;;;5101169;28;20069;-57
2023/05/31 03:24:15;;;;;;;19.60;10.45;;;11.20;99.90;;;;;;5097463;28;20088;-57
2023/05/31 03:26:41;;;;;;;27.52;10.57;;;11.20;99.90;;;;;;5096655;28;20028;-56
2023/05/31 03:29:06;;;;;;;24.85;9.85;;;11.20;99.90;;;;;;5095900;28;20080;-57
2023/05/31 03:31:32;;;;;;;19.80;8.77;;;11.20;99.90;;;;;;5096178;28;20038;-54
2023/05/31 03:33:58;;;;;;;25.30;10.93;;;11.20;99.90;;;;;;5097304;28;20040;-57
2023/05/31 03:36:24;;;;;;;31.23;9.75;;;11.20;99.90;;;;;;5098242;28;20055;-56
2023/05/31 03:38:49;;;;;;;27.27;9.20;;;11.20;99.90;;;;;;5098889;28;20055;-57
2023/05/31 03:41:15;;;;;;;23.60;9.98;;;11.10;99.90;;;;;;5097665;28;20156;-59
2023/05/31 03:43:40;;;;;;;29.33;11.23;;;11.20;99.90;;;;;;5106329;28;20024;-57
2023/05/31 03:46:06;;;;;;;18.58;9.68;;;11.10;99.90;;;;;;5100604;28;20319;-57
2023/05/31 03:48:33;;;;;;;18.63;9.77;;;11.10;99.90;;;;;;5099243;28;20611;-57
2023/05/31 03:50:58;;;;;;;21.95;10.43;;;11.10;99.90;;;;;;5097800;28;20107;-56
2023/05/31 03:53:25;;;;;;;30.02;10.45;;;11.10;99.90;;;;;;5097851;28;20062;-57
2023/05/31 03:55:50;;;;;;;24.42;10.90;;;11.10;99.90;;;;;;5100200;28;20047;-59
2023/05/31 03:58:16;;;;;;;19.25;9.65;;;11.10;99.90;;;;;;5095471;28;20053;-57
2023/05/31 04:00:42;;;;;;;28.42;10.75;;;11.10;99.90;;;;;;5094952;28;20023;-52
2023/05/31 04:03:07;;;;;;;21.95;10.07;;;11.20;99.90;;;;;;5094507;28;20141;-57
2023/05/31 04:05:33;;;;;;;23.88;9.82;;;11.20;99.90;;;;;;5100942;28;20069;-55
2023/05/31 04:08:02;;;;;;;20.98;10.27;;;11.20;99.90;;;;;;5106696;28;20028;-60
2023/05/31 04:10:27;;;;;;;28.23;10.95;;;11.20;99.90;;;;;;5107391;28;20032;-56
2023/05/31 04:12:53;;;;;;;20.75;9.93;;;11.20;99.90;;;;;;5108579;28;20039;-57
2023/05/31 04:15:18;;;;;;;29.90;10.10;;;11.20;99.90;;;;;;5109585;27;20024;-59
2023/05/31 04:17:45;;;;;;;20.85;9.90;;;11.30;99.90;;;;;;5108360;28;20568;-59
2023/05/31 04:20:11;;;;;;;33.03;10.57;;;11.30;99.90;;;;;;5108900;28;20028;-55
2023/05/31 04:22:36;;;;;;;26.67;9.98;;;11.40;99.90;;;;;;5104113;28;20351;-57
2023/05/31 04:25:02;;;;;;;20.70;10.15;;;11.40;99.90;;;;;;5108011;28;20032;-56
2023/05/31 04:27:30;;;;;;;25.90;10.88;;;11.40;99.90;;;;;;5109881;28;20035;-58
2023/05/31 04:29:57;;;;;;;24.45;10.68;;;11.50;99.90;;;;;;5105617;28;20039;-57
2023/05/31 04:32:24;;;;;;;26.50;10.48;;;11.60;99.90;;;;;;5104165;28;20096;-57
2023/05/31 04:34:52;;;;;;;27.30;10.77;;;11.60;99.90;;;;;;5107290;28;20380;-56
2023/05/31 04:37:17;;;;;;;24.33;9.20;;;11.70;99.90;;;;;;5108793;28;20111;-59
2023/05/31 04:39:43;;;;;;;22.63;10.50;;;11.70;99.90;;;;;;5104814;28;20126;-59
2023/05/31 04:42:11;;;;;;;20.52;10.27;;;11.80;99.90;;;;;;5103965;28;20038;-58
2023/05/31 04:44:37;;;;;;;18.30;8.95;;;11.80;99.90;;;;;;5103077;28;20119;-59
2023/05/31 04:47:04;;;;;;;24.33;11.10;;;11.90;99.90;;;;;;5102662;28;20493;-58
2023/05/31 04:49:30;;;;;;;23.77;10.82;;;11.90;99.90;;;;;;5105708;27;20040;-58
2023/05/31 04:51:56;;;;;;;22.23;9.82;;;12.00;99.90;;;;;;5100811;28;20428;-58
2023/05/31 04:54:22;;;;;;;24.73;9.90;;;12.10;99.90;;;;;;5098300;28;20027;-59
2023/05/31 04:56:48;;;;;;;22.83;11.05;;;12.10;99.90;;;;;;5101562;28;20089;-59
2023/05/31 04:59:13;;;;;;;29.63;11.57;;;12.20;99.90;;;;;;5105141;28;20019;-57
2023/05/31 05:01:40;;;;;;;27.05;10.65;;;12.20;99.90;;;;;;5101188;28;20100;-58
2023/05/31 05:04:06;;;;;;;23.17;9.88;;;12.30;99.90;;;;;;5099770;28;20039;-60
2023/05/31 05:06:32;;;;;;;23.55;10.30;;;12.30;99.90;;;;;;5104150;28;20012;-59
2023/05/31 05:08:58;;;;;;;24.40;10.50;;;12.40;99.90;;;;;;5104285;28;20027;-60
2023/05/31 05:11:24;;;;;;;22.40;10.05;;;12.50;99.90;;;;;;5106821;28;20024;-56
2023/05/31 05:13:50;;;;;;;20.95;9.75;;;12.60;99.90;;;;;;5095736;28;20027;-59
2023/05/31 05:16:16;;;;;;;37.13;9.60;;;12.70;99.90;;;;;;5119880;27;20032;-54
2023/05/31 05:18:41;;;;;;;18.35;9.98;;;12.90;99.90;;;;;;5105521;28;20081;-57
2023/05/31 05:21:07;;;;;;;29.02;11.00;;;13.00;99.90;;;;;;5099654;28;20122;-59
2023/05/31 05:23:34;;;;;;;21.58;9.57;;;13.10;99.90;;;;;;5105805;28;20453;-57
2023/05/31 05:26:00;;;;;;;19.58;10.25;;;13.20;99.90;;;;;;5104007;28;20512;-58
2023/05/31 05:28:28;;;;;;;28.17;9.27;;;13.30;99.90;;;;;;5103834;28;20031;-57
2023/05/31 05:30:53;;;;;;;18.35;9.55;;;13.40;99.90;;;;;;5102742;28;20027;-54
2023/05/31 05:33:19;;;;;;;22.85;8.85;;;13.50;99.90;;;;;;5100885;28;20073;-57
2023/05/31 05:35:44;;;;;;;23.33;9.63;;;13.60;99.90;;;;;;5103207;28;20028;-55
2023/05/31 05:38:10;;;;;;;18.75;9.70;;;13.70;99.90;;;;;;5107391;28;20023;-60
2023/05/31 05:40:36;;;;;;;24.13;8.82;;;13.80;99.90;;;;;;5108376;28;20490;-58
2023/05/31 05:43:01;;;;;;;22.23;8.20;;;13.80;99.90;;;;;;5103960;27;20024;-57
2023/05/31 05:45:27;;;;;;;17.67;9.05;;;14.00;99.90;;;;;;5104203;28;20023;-58
2023/05/31 05:47:55;;;;;;;24.58;8.80;;;14.10;99.90;;;;;;5110943;28;20860;-55
2023/05/31 05:50:21;;;;;;;20.70;9.07;;;14.10;99.90;;;;;;5103085;28;20062;-59
2023/05/31 05:52:46;;;;;;;23.63;9.05;;;14.20;99.90;;;;;;5106703;28;20059;-61
2023/05/31 05:55:12;;;;;;;20.35;9.32;;;14.20;99.90;;;;;;5107379;28;20196;-60
2023/05/31 05:57:37;;;;;;;23.73;9.48;;;14.30;99.90;;;;;;5107392;28;20032;-54
2023/05/31 06:00:14;;;;;;;18.85;8.55;;;14.40;99.90;;;;;;5107161;28;20020;-57
2023/05/31 06:02:40;;;;;;;17.63;8.57;;;14.50;99.90;;;;;;5106654;28;20035;-57
2023/05/31 06:05:06;;;;;;;24.15;9.23;;;14.50;99.90;;;;;;5106020;28;20026;-58
2023/05/31 06:07:32;;;;;;;15.95;7.78;;;14.60;99.90;;;;;;5104035;28;20028;-58
2023/05/31 06:09:57;;;;;;;19.35;8.75;;;14.60;99.90;;;;;;5107403;28;20375;-59
2023/05/31 06:12:23;;;;;;;18.98;7.65;;;14.70;99.90;;;;;;5105154;28;20057;-57
2023/05/31 06:14:49;;;;;;;25.17;8.63;;;14.70;99.90;;;;;;5109020;28;20656;-56
2023/05/31 06:17:14;;;;;;;17.58;8.15;;;14.80;99.90;;;;;;5102617;28;20020;-56
2023/05/31 06:19:40;;;;;;;21.60;8.68;;;14.80;99.90;;;;;;5104455;28;20143;-57
2023/05/31 06:22:06;;;;;;;15.02;7.95;;;14.90;99.90;;;;;;5106553;28;20016;-57
2023/05/31 06:24:31;;;;;;;13.20;6.10;;;14.90;99.90;;;;;;5106194;28;20030;-52
2023/05/31 06:26:57;;;;;;;12.98;5.90;;;15.00;99.90;;;;;;5106272;28;20545;-56
2023/05/31 06:29:23;;;;;;;22.92;5.45;;;15.10;99.90;;;;;;5108803;28;20059;-57
2023/05/31 06:31:48;;;;;;;14.93;5.43;;;15.20;99.90;;;;;;5106317;28;20027;-58
2023/05/31 06:34:14;;;;;;;17.20;6.13;;;15.20;99.90;;;;;;5103186;28;20035;-58
2023/05/31 06:36:41;;;;;;;19.05;5.63;;;15.20;99.90;;;;;;5102773;28;20039;-59
2023/05/31 06:39:07;;;;;;;12.07;5.38;;;15.40;99.90;;;;;;5103409;28;20046;-58
2023/05/31 06:41:34;;;;;;;10.63;4.70;;;15.40;99.90;;;;;;5101154;28;20020;-59
2023/05/31 06:44:03;;;;;;;14.20;4.95;;;15.70;99.90;;;;;;5105062;28;20026;-56
2023/05/31 06:46:29;;;;;;;12.98;4.57;;;15.60;99.90;;;;;;5108432;28;20027;-56
2023/05/31 06:48:55;;;;;;;13.75;5.03;;;15.70;99.90;;;;;;5108091;28;20015;-53
2023/05/31 06:51:22;;;;;;;9.35;4.28;;;15.70;99.90;;;;;;5102925;28;20027;-58
2023/05/31 06:53:48;;;;;;;13.48;4.40;;;15.80;99.90;;;;;;5104403;28;20028;-55
2023/05/31 06:56:14;;;;;;;15.85;4.90;;;15.90;99.90;;;;;;5105542;28;20038;-58
2023/05/31 06:58:41;;;;;;;14.57;4.85;;;16.00;99.90;;;;;;5105989;28;20626;-54
2023/05/31 07:01:06;;;;;;;11.98;4.63;;;16.20;99.90;;;;;;5107716;28;20023;-57
2023/05/31 07:03:32;;;;;;;16.27;4.25;;;16.30;99.90;;;;;;5105181;28;20450;-57
2023/05/31 07:05:57;;;;;;;13.45;4.50;;;16.30;99.90;;;;;;5105024;28;20035;-58
2023/05/31 07:08:23;;;;;;;9.82;3.40;;;16.40;99.90;;;;;;5103860;28;20032;-55
2023/05/31 07:10:48;;;;;;;13.70;4.28;;;16.50;99.90;;;;;;5101870;28;20091;-59
2023/05/31 07:13:14;;;;;;;14.50;4.18;;;16.50;99.90;;;;;;5105157;28;20431;-55
2023/05/31 07:15:40;;;;;;;11.90;4.32;;;16.50;99.90;;;;;;5101541;28;20035;-59
2023/05/31 07:18:05;;;;;;;17.67;4.00;;;16.60;99.90;;;;;;5098407;28;20420;-57
2023/05/31 07:20:31;;;;;;;15.23;4.35;;;16.70;99.90;;;;;;5107317;28;20710;-58
2023/05/31 07:22:57;;;;;;;12.48;4.03;;;16.80;99.90;;;;;;5100565;28;20023;-57
2023/05/31 07:25:23;;;;;;;9.38;3.30;;;16.90;99.90;;;;;;5103071;28;20180;-57
2023/05/31 07:27:49;;;;;;;12.07;4.32;;;17.00;99.90;;;;;;5102969;28;20024;-56
2023/05/31 07:30:14;;;;;;;8.88;3.30;;;17.20;99.90;;;;;;5104820;28;20042;-57
2023/05/31 07:32:40;;;;;;;12.10;3.80;;;17.30;99.90;;;;;;5103375;28;20036;-58
2023/05/31 07:35:06;;;;;;;6.70;3.65;;;17.40;99.90;;;;;;5100316;28;20024;-60
2023/05/31 07:37:32;;;;;;;12.75;3.75;;;17.50;99.90;;;;;;5104161;28;20070;-57
2023/05/31 07:39:58;;;;;;;16.88;3.60;;;17.60;99.90;;;;;;5102272;28;20057;-56
2023/05/31 07:42:23;;;;;;;10.95;4.10;;;17.60;99.90;;;;;;5106784;28;20066;-54
2023/05/31 07:44:49;;;;;;;11.05;3.55;;;17.60;99.90;;;;;;5103932;28;20080;-56
2023/05/31 07:47:15;;;;;;;14.85;3.85;;;17.60;99.90;;;;;;5106296;28;20028;-54
2023/05/31 07:49:41;;;;;;;12.80;3.38;;;17.80;99.90;;;;;;5108753;28;20406;-55
2023/05/31 07:52:07;;;;;;;6.88;2.97;;;17.90;99.90;;;;;;5109601;28;20027;-60
2023/05/31 07:54:33;;;;;;;7.13;3.03;;;17.90;99.90;;;;;;5105626;28;20056;-57
2023/05/31 07:56:59;;;;;;;9.20;3.70;;;18.00;99.90;;;;;;5110839;28;20059;-58
2023/05/31 07:59:24;;;;;;;24.52;3.97;;;18.20;99.90;;;;;;5105986;28;20015;-61
2023/05/31 08:01:50;;;;;;;14.43;3.50;;;18.30;99.90;;;;;;5107299;28;20361;-59
2023/05/31 08:04:16;;;;;;;11.50;3.28;;;18.30;99.90;;;;;;5110185;28;20128;-54
2023/05/31 08:06:42;;;;;;;10.88;3.15;;;18.30;99.90;;;;;;5106572;28;20020;-59
2023/05/31 08:09:08;;;;;;;6.88;2.83;;;18.50;99.90;;;;;;5109198;27;20020;-56
2023/05/31 08:11:36;;;;;;;13.13;2.88;;;18.50;99.90;;;;;;5111238;28;20048;-57
2023/05/31 08:14:03;;;;;;;12.27;3.60;;;18.70;99.90;;;;;;5109305;28;20016;-59
2023/05/31 08:16:31;;;;;;;8.88;3.13;;;18.70;99.90;;;;;;5103476;28;20322;-56
2023/05/31 08:18:56;;;;;;;5.63;2.45;;;18.80;99.90;;;;;;5107558;28;20032;-60
2023/05/31 08:21:22;;;;;;;6.28;2.97;;;18.90;99.90;;;;;;5107010;28;20053;-59
2023/05/31 08:23:47;;;;;;;7.32;2.80;;;19.20;99.90;;;;;;5108407;28;20042;-59
2023/05/31 08:26:13;;;;;;;5.65;2.42;;;19.30;99.90;;;;;;5110733;28;20027;-58
2023/05/31 08:28:39;;;;;;;8.88;2.97;;;19.40;99.90;;;;;;5111127;28;20107;-56
2023/05/31 08:31:04;;;;;;;13.77;4.18;;;19.40;99.90;;;;;;5106896;28;20525;-54
2023/05/31 08:33:31;;;;;;;11.90;2.92;;;19.50;99.90;;;;;;5107619;28;20028;-59
2023/05/31 08:35:59;;;;;;;10.23;3.25;;;19.60;99.90;;;;;;5108621;28;20024;-61
2023/05/31 08:38:28;;;;;;;6.03;2.50;;;19.70;99.90;;;;;;5108568;28;20024;-57
2023/05/31 08:41:01;;;;;;;6.72;2.75;;;19.80;99.90;;;;;;5110976;28;20024;-61
2023/05/31 08:43:28;;;;;;;4.82;2.15;;;19.90;99.90;;;;;;5109023;28;20018;-60
2023/05/31 08:45:54;;;;;;;5.68;2.42;;;20.10;99.90;;;;;;5106042;28;20034;-59
2023/05/31 08:48:20;;;;;;;6.65;3.03;;;20.10;99.90;;;;;;5107079;28;20482;-58
2023/05/31 08:50:47;;;;;;;11.27;2.80;;;20.20;99.90;;;;;;5106986;28;20042;-59
2023/05/31 08:53:15;;;;;;;5.28;2.20;;;20.30;99.90;;;;;;5108838;28;20082;-59
2023/05/31 08:55:42;;;;;;;7.45;2.85;;;20.40;99.90;;;;;;5106877;28;20032;-58
2023/05/31 08:58:10;;;;;;;9.73;2.78;;;20.50;99.90;;;;;;5110542;28;20037;-58
2023/05/31 09:00:36;;;;;;;9.15;2.78;;;20.50;99.90;;;;;;5104357;28;20100;-60
2023/05/31 09:03:05;;;;;;;11.02;2.70;;;20.60;99.90;;;;;;5105937;28;20104;-56
2023/05/31 09:05:31;;;;;;;5.28;2.67;;;20.80;99.90;;;;;;5107721;28;20023;-61
2023/05/31 09:07:58;;;;;;;4.75;2.15;;;20.90;99.90;;;;;;5110800;27;20020;-59
2023/05/31 09:10:24;;;;;;;5.10;2.22;;;21.00;99.90;;;;;;5105308;28;20129;-57
2023/05/31 09:12:49;;;;;;;7.28;2.40;;;21.10;99.90;;;;;;5109182;28;20679;-59
2023/05/31 09:15:15;;;;;;;9.90;2.38;;;21.20;99.90;;;;;;5106388;28;20027;-56
2023/05/31 09:17:45;;;;;;;4.25;2.17;;;21.30;98.60;;;;;;5104315;28;20450;-56
2023/05/31 09:20:12;;;;;;;6.63;2.67;;;21.50;98.50;;;;;;5098410;28;20031;-57
2023/05/31 09:22:37;;;;;;;3.65;1.63;;;21.60;99.40;;;;;;5104516;28;20058;-60
2023/05/31 09:25:03;;;;;;;10.73;2.08;;;21.80;97.10;;;;;;5109775;27;20043;-58
2023/05/31 09:27:37;;;;;;;6.18;2.63;;;21.80;92.60;;;;;;5105420;28;20024;-60
2023/05/31 09:30:11;;;;;;;6.82;2.17;;;22.00;96.20;;;;;;5105058;28;20027;-56
2023/05/31 09:32:38;;;;;;;6.68;2.50;;;22.10;95.90;;;;;;5101894;28;20027;-56
2023/05/31 09:35:14;;;;;;;7.47;2.13;;;22.20;94.00;;;;;;5105093;28;20468;-58
2023/05/31 09:37:44;;;;;;;6.10;2.50;;;22.40;90.80;;;;;;5104124;28;20058;-56
2023/05/31 09:40:12;;;;;;;3.65;1.52;;;22.50;90.90;;;;;;5106736;28;20092;-56
2023/05/31 09:42:38;;;;;;;5.28;1.90;;;22.60;86.60;;;;;;5107724;28;20434;-55
2023/05/31 09:45:04;;;;;;;5.20;1.67;;;22.70;85.80;;;;;;5105566;28;20031;-57
2023/05/31 09:47:30;;;;;;;5.47;1.73;;;22.80;85.40;;;;;;5107022;28;20045;-54
2023/05/31 09:49:55;;;;;;;6.53;2.15;;;22.90;82.80;;;;;;5108455;28;20095;-56
2023/05/31 09:52:30;;;;;;;6.53;2.10;;;23.00;82.00;;;;;;5105349;28;20030;-57
2023/05/31 09:54:59;;;;;;;3.83;1.83;;;23.10;87.80;;;;;;5109472;28;20663;-57
2023/05/31 09:57:40;;;;;;;8.10;2.03;;;23.30;89.30;;;;;;5105990;28;20028;-58
2023/05/31 10:00:14;;;;;;;8.55;2.25;;;23.50;88.30;;;;;;5104945;28;20016;-60
2023/05/31 10:02:42;;;;;;;6.53;1.98;;;23.80;90.00;;;;;;5106229;28;20027;-59
2023/05/31 10:05:08;;;;;;;4.25;2.00;;;23.90;81.10;;;;;;5104830;28;20071;-56
2023/05/31 10:07:36;;;;;;;4.72;2.25;;;24.00;83.00;;;;;;5104857;28;20031;-57
2023/05/31 10:10:01;;;;;;;5.68;2.10;;;24.10;82.50;;;;;;5108613;28;20028;-59
2023/05/31 10:12:29;;;;;;;4.43;1.60;;;24.30;80.20;;;;;;5104833;27;20083;-58
2023/05/31 10:15:01;;;;;;;6.13;2.08;;;24.30;81.70;;;;;;5103529;28;20501;-57
2023/05/31 10:17:29;;;;;;;6.15;2.08;;;24.70;85.70;;;;;;5105841;28;20026;-59
2023/05/31 10:20:04;;;;;;;5.22;1.90;;;24.90;75.20;;;;;;5106763;28;20661;-57
2023/05/31 10:22:31;;;;;;;4.80;2.17;;;25.00;74.10;;;;;;5104489;28;20141;-53
2023/05/31 10:25:25;;;;;;;6.88;2.25;;;24.90;82.40;;;;;;5104001;28;20072;-55
2023/05/31 10:27:53;;;;;;;4.75;1.48;;;25.10;72.90;;;;;;5104354;28;20027;-57
2023/05/31 10:30:25;;;;;;;4.60;2.03;;;25.10;70.70;;;;;;5102657;28;20103;-57
2023/05/31 10:33:00;;;;;;;9.90;2.10;;;25.00;70.40;;;;;;5107907;28;20118;-55
2023/05/31 10:35:26;;;;;;;5.47;1.77;;;25.20;78.40;;;;;;5107005;28;20031;-57
2023/05/31 10:37:53;;;;;;;6.53;2.33;;;25.50;70.00;;;;;;5109844;28;20500;-55
2023/05/31 10:40:34;;;;;;;3.75;1.70;;;25.60;69.30;;;;;;5107480;28;20046;-55
2023/05/31 10:43:18;;;;;;;4.10;1.90;;;25.50;67.60;;;;;;5105332;28;20077;-55
2023/05/31 10:45:51;;;;;;;6.38;1.67;;;25.40;65.30;;;;;;5107527;28;20031;-59
2023/05/31 10:48:32;;;;;;;4.27;1.73;;;25.50;67.50;;;;;;5105484;28;20019;-58
2023/05/31 10:51:00;;;;;;;10.52;2.45;;;25.70;65.80;;;;;;5106375;28;20493;-56
2023/05/31 10:53:39;;;;;;;6.07;1.80;;;26.00;71.70;;;;;;5102362;28;21074;-58
2023/05/31 10:56:06;;;;;;;7.63;1.98;;;26.20;71.90;;;;;;5109853;28;20019;-57
2023/05/31 10:58:39;;;;;;;5.13;2.15;;;26.30;65.40;;;;;;5103864;28;20089;-57
2023/05/31 11:01:16;;;;;;;7.97;1.88;;;26.50;71.40;;;;;;5103067;28;20393;-57
2023/05/31 11:03:49;;;;;;;6.35;1.50;;;26.70;63.00;;;;;;5103607;28;20035;-58
2023/05/31 11:06:17;;;;;;;4.03;2.00;;;26.80;70.60;;;;;;5107738;28;20053;-59
2023/05/31 11:09:11;;;;;;;8.18;2.35;;;27.00;66.20;;;;;;5108498;28;20485;-55
2023/05/31 11:11:37;;;;;;;4.70;1.70;;;27.00;61.50;;;;;;5104191;28;20043;-59
2023/05/31 11:14:09;;;;;;;4.38;1.83;;;26.90;59.00;;;;;;5105120;28;20020;-59
2023/05/31 11:16:45;;;;;;;4.07;1.67;;;26.60;64.00;;;;;;5105339;28;20038;-61
2023/05/31 11:19:16;;;;;;;5.78;1.48;;;26.80;69.80;;;;;;5107385;28;20050;-58
2023/05/31 11:22:07;;;;;;;4.85;1.77;;;27.10;61.00;;;;;;5105700;28;20055;-56
2023/05/31 11:24:52;;;;;;;3.20;1.73;;;27.00;62.40;;;;;;5106331;28;20099;-60
2023/05/31 11:27:20;;;;;;;9.45;1.85;;;27.10;60.70;;;;;;5099568;28;20043;-60
2023/05/31 11:29:48;;;;;;;5.70;2.08;;;27.00;59.30;;;;;;5104881;28;20065;-59
2023/05/31 11:32:14;;;;;;;9.02;2.30;;;26.90;60.80;;;;;;5102277;28;20047;-59
2023/05/31 11:35:02;;;;;;;6.57;1.88;;;27.00;72.10;;;;;;5106939;28;20441;-60
2023/05/31 11:37:31;;;;;;;3.65;1.90;;;27.40;62.00;;;;;;5103121;28;20036;-59
2023/05/31 11:40:01;;;;;;;5.57;2.20;;;27.40;59.20;;;;;;5106229;28;20427;-60
2023/05/31 11:42:44;;;;;;;12.23;1.77;;;27.10;59.60;;;;;;5096870;28;20027;-58
2023/05/31 11:45:11;;;;;;;8.60;1.98;;;27.20;59.60;;;;;;5099395;28;20133;-60
2023/05/31 11:47:37;;;;;;;7.03;2.00;;;27.20;60.80;;;;;;5101821;28;20049;-60
2023/05/31 11:50:02;;;;;;;6.18;2.08;;;27.40;58.80;;;;;;5101772;28;20353;-57
2023/05/31 11:52:28;;;;;;;4.63;1.90;;;27.70;59.70;;;;;;5103261;28;20038;-60
2023/05/31 11:54:56;;;;;;;8.45;1.88;;;27.80;58.00;;;;;;5106475;28;20107;-57
2023/05/31 11:57:22;;;;;;;3.88;1.90;;;27.90;62.10;;;;;;5102119;28;20085;-59
2023/05/31 11:59:48;;;;;;;6.78;1.77;;;27.80;58.60;;;;;;5099457;28;20481;-60
2023/05/31 12:02:13;;;;;;;3.88;1.75;;;28.10;58.20;;;;;;5104025;28;20104;-58
2023/05/31 12:04:41;;;;;;;9.50;2.28;;;28.30;57.60;;;;;;5102290;28;20024;-59
2023/05/31 12:07:12;;;;;;;4.47;2.00;;;28.20;63.10;;;;;;5102237;28;20031;-61
2023/05/31 12:09:38;;;;;;;5.35;2.20;;;28.20;63.70;;;;;;5103641;28;20580;-59
2023/05/31 12:12:07;;;;;;;4.75;2.03;;;28.30;64.30;;;;;;5099655;28;20032;-58
2023/05/31 12:14:33;;;;;;;6.78;1.80;;;28.20;62.50;;;;;;5101592;28;20088;-60
2023/05/31 12:17:03;;;;;;;7.43;2.08;;;28.40;60.00;;;;;;5101790;28;20028;-59
2023/05/31 12:19:29;;;;;;;3.30;1.58;;;28.50;54.60;;;;;;5100221;28;20100;-60
2023/05/31 12:21:55;;;;;;;5.63;1.70;;;28.40;57.20;;;;;;5103532;28;20023;-59
2023/05/31 12:24:21;;;;;;;3.17;1.60;;;28.70;55.40;;;;;;5103285;28;20044;-58
2023/05/31 12:26:51;;;;;;;5.95;1.90;;;28.80;55.10;;;;;;5106371;28;20110;-59
2023/05/31 12:29:17;;;;;;;6.45;1.67;;;28.80;55.20;;;;;;5106424;28;20077;-57
2023/05/31 12:31:43;;;;;;;4.60;2.13;;;28.80;55.30;;;;;;5105637;28;20114;-59
2023/05/31 12:34:13;;;;;;;4.25;1.95;;;28.70;55.00;;;;;;5105190;28;20016;-59
2023/05/31 12:36:38;;;;;;;4.40;1.92;;;28.60;61.80;;;;;;5106293;28;20055;-60
2023/05/31 12:39:11;;;;;;;3.38;1.58;;;28.70;57.40;;;;;;5105021;28;20055;-60
2023/05/31 12:41:38;;;;;;;3.42;1.50;;;29.10;55.50;;;;;;5105166;28;20115;-56